createdAt,value
2023-01-31T00:00:50.075Z,99.90
2023-01-31T00:03:18.807Z,99.90
2023-01-31T00:05:47.284Z,99.90
2023-01-31T00:08:15.622Z,99.90
2023-01-31T00:10:44.221Z,99.90
2023-01-31T00:13:12.597Z,99.90
2023-01-31T00:15:42.396Z,99.90
2023-01-31T00:18:10.723Z,99.90
2023-01-31T00:20:39.291Z,99.90
2023-01-31T00:23:07.648Z,99.90
2023-01-31T00:25:36.066Z,99.90
2023-01-31T00:28:04.448Z,99.90
2023-01-31T00:30:32.905Z,99.90
2023-01-31T00:33:02.905Z,99.90
2023-01-31T00:35:31.543Z,99.90
2023-01-31T00:38:00.987Z,99.90
2023-01-31T00:40:29.393Z,99.90
2023-01-31T00:42:57.772Z,99.90
2023-01-31T00:45:27.320Z,99.90
2023-01-31T00:47:55.622Z,99.90
2023-01-31T00:50:25.836Z,99.90
2023-01-31T00:52:55.269Z,99.90
2023-01-31T00:55:26.655Z,99.90
2023-01-31T00:57:55.101Z,99.90
2023-01-31T01:00:23.716Z,99.90
2023-01-31T01:02:53.590Z,99.90
2023-01-31T01:05:22.324Z,99.90
2023-01-31T01:07:52.149Z,99.90
2023-01-31T01:10:20.575Z,99.90
2023-01-31T01:12:48.956Z,99.90
2023-01-31T01:15:18.082Z,99.90
2023-01-31T01:17:46.813Z,99.90
2023-01-31T01:20:15.487Z,99.90
2023-01-31T01:22:44.057Z,99.90
2023-01-31T01:25:13.713Z,99.90
2023-01-31T01:27:42.310Z,99.90
2023-01-31T01:30:13.614Z,99.90
2023-01-31T01:32:42.143Z,99.90
2023-01-31T01:35:11.269Z,99.90
2023-01-31T01:37:39.742Z,99.90
2023-01-31T01:40:09.362Z,99.90
2023-01-31T01:42:39.114Z,99.90
2023-01-31T01:45:16.601Z,99.90
2023-01-31T01:47:50.584Z,99.90
2023-01-31T01:50:24.293Z,99.90
2023-01-31T01:52:55.533Z,99.90
2023-01-31T01:55:28.248Z,99.90
2023-01-31T01:58:04.315Z,99.90
2023-01-31T02:00:34.373Z,99.90
2023-01-31T02:03:06.012Z,99.90
2023-01-31T02:05:37.992Z,99.90
2023-01-31T02:08:07.112Z,99.90
2023-01-31T02:10:40.444Z,99.80
2023-01-31T02:13:10.671Z,99.70
2023-01-31T02:15:39.165Z,99.60
2023-01-31T02:18:09.527Z,99.60
2023-01-31T02:21:14.423Z,99.50
2023-01-31T02:24:03.850Z,99.40
2023-01-31T02:27:05.886Z,99.50
2023-01-31T02:30:01.813Z,99.10
2023-01-31T02:32:50.330Z,98.80
2023-01-31T02:35:29.587Z,98.80
2023-01-31T02:38:10.004Z,99.00
2023-01-31T02:40:45.214Z,99.10
2023-01-31T02:43:22.561Z,99.30
2023-01-31T02:46:01.022Z,99.50
2023-01-31T02:48:40.883Z,99.60
2023-01-31T02:51:15.493Z,99.70
2023-01-31T02:53:50.716Z,99.70
2023-01-31T02:56:23.886Z,99.70
2023-01-31T02:58:59.922Z,99.60
2023-01-31T03:01:33.083Z,99.40
2023-01-31T03:04:06.126Z,99.10
2023-01-31T03:07:01.770Z,98.80
2023-01-31T03:09:40.379Z,98.60
2023-01-31T03:12:34.105Z,98.40
2023-01-31T03:15:24.807Z,98.30
2023-01-31T03:18:00.800Z,98.20
2023-01-31T03:20:40.543Z,98.10
2023-01-31T03:23:13.073Z,98.10
2023-01-31T03:25:42.194Z,98.10
2023-01-31T03:28:18.003Z,98.20
2023-01-31T03:30:53.855Z,98.30
2023-01-31T03:33:25.584Z,98.50
2023-01-31T03:36:00.804Z,98.60
2023-01-31T03:38:35.185Z,98.90
2023-01-31T03:41:11.202Z,99.10
2023-01-31T03:43:45.931Z,99.70
2023-01-31T03:46:22.415Z,99.80
2023-01-31T03:48:54.754Z,99.90
2023-01-31T03:51:28.825Z,99.90
2023-01-31T03:54:02.623Z,99.90
2023-01-31T03:56:37.230Z,99.90
2023-01-31T03:59:13.013Z,99.90
2023-01-31T04:01:46.135Z,99.90
2023-01-31T04:04:22.428Z,99.90
2023-01-31T04:06:52.765Z,99.90
2023-01-31T04:09:23.238Z,99.90
2023-01-31T04:11:52.657Z,99.90
2023-01-31T04:14:21.181Z,99.90
2023-01-31T04:16:49.543Z,99.90
2023-01-31T04:19:17.882Z,99.90
2023-01-31T04:21:46.313Z,99.90
2023-01-31T04:24:15.977Z,99.90
2023-01-31T04:26:44.404Z,99.90
2023-01-31T04:29:12.860Z,99.90
2023-01-31T04:31:41.543Z,99.90
2023-01-31T04:34:10.375Z,99.90
2023-01-31T04:36:38.764Z,99.90
2023-01-31T04:39:07.130Z,99.90
2023-01-31T04:41:37.614Z,99.90
2023-01-31T04:44:06.114Z,99.90
2023-01-31T04:46:34.507Z,99.90
2023-01-31T04:49:02.937Z,99.90
2023-01-31T04:51:31.808Z,99.90
2023-01-31T04:54:00.144Z,99.90
2023-01-31T04:56:28.470Z,99.90
2023-01-31T04:58:58.152Z,99.90
2023-01-31T05:01:27.121Z,99.90
2023-01-31T05:03:55.503Z,99.90
2023-01-31T05:06:24.203Z,99.90
2023-01-31T05:08:54.477Z,99.90
2023-01-31T05:11:23.013Z,99.90
2023-01-31T05:13:51.413Z,99.90
2023-01-31T05:16:21.276Z,99.90
2023-01-31T05:18:51.085Z,99.90
2023-01-31T05:21:19.539Z,99.90
2023-01-31T05:23:47.965Z,99.90
2023-01-31T05:26:16.505Z,99.90
2023-01-31T05:28:44.887Z,99.90
2023-01-31T05:31:14.210Z,99.90
2023-01-31T05:33:44.658Z,99.90
2023-01-31T05:36:13.124Z,99.90
2023-01-31T05:38:41.474Z,99.90
2023-01-31T05:41:09.846Z,99.90
2023-01-31T05:43:38.178Z,99.90
2023-01-31T05:46:06.609Z,99.90
2023-01-31T05:48:34.968Z,99.90
2023-01-31T05:51:04.681Z,99.90
2023-01-31T05:53:33.162Z,99.90
2023-01-31T05:56:01.645Z,99.90
2023-01-31T05:58:30.002Z,99.90
2023-01-31T06:00:58.467Z,99.90
2023-01-31T06:03:26.863Z,99.90
2023-01-31T06:05:55.216Z,99.90
2023-01-31T06:08:24.851Z,99.90
2023-01-31T06:10:53.283Z,99.90
2023-01-31T06:13:21.613Z,99.90
2023-01-31T06:15:51.224Z,99.90
2023-01-31T06:18:19.563Z,99.90
2023-01-31T06:20:47.946Z,99.90
2023-01-31T06:23:16.406Z,99.90
2023-01-31T06:25:46.096Z,99.90
2023-01-31T06:28:14.535Z,99.90
2023-01-31T06:30:42.944Z,99.90
2023-01-31T06:33:11.567Z,99.90
2023-01-31T06:35:40.454Z,99.90
2023-01-31T06:38:09.221Z,99.90
2023-01-31T06:40:37.718Z,99.90
2023-01-31T06:43:07.388Z,99.90
2023-01-31T06:45:35.798Z,99.90
2023-01-31T06:48:04.289Z,99.90
2023-01-31T06:50:32.915Z,99.90
2023-01-31T06:53:01.256Z,99.90
2023-01-31T06:55:29.637Z,99.90
2023-01-31T06:57:58.714Z,99.90
2023-01-31T07:00:29.300Z,99.90
2023-01-31T07:02:57.955Z,99.90
2023-01-31T07:05:26.383Z,99.90
2023-01-31T07:07:54.735Z,99.90
2023-01-31T07:10:23.145Z,99.90
2023-01-31T07:12:52.009Z,99.90
2023-01-31T07:15:21.149Z,99.90
2023-01-31T07:17:51.475Z,99.90
2023-01-31T07:20:20.224Z,99.90
2023-01-31T07:22:56.887Z,99.90
2023-01-31T07:25:25.674Z,99.90
2023-01-31T07:27:54.248Z,98.40
2023-01-31T07:30:23.052Z,95.70
2023-01-31T07:32:52.811Z,92.80
2023-01-31T07:35:21.842Z,88.50
2023-01-31T07:37:53.070Z,83.20
2023-01-31T07:40:22.321Z,78.40
2023-01-31T07:42:50.675Z,74.60
2023-01-31T07:45:23.794Z,71.50
2023-01-31T07:47:54.319Z,69.00
2023-01-31T07:50:22.745Z,66.60
2023-01-31T07:52:51.381Z,65.30
2023-01-31T07:55:20.204Z,63.40
2023-01-31T07:57:48.826Z,61.20
2023-01-31T08:00:35.162Z,59.00
2023-01-31T08:03:22.969Z,58.00
2023-01-31T08:05:51.728Z,57.00
2023-01-31T08:08:20.231Z,56.30
2023-01-31T08:10:48.531Z,55.90
2023-01-31T08:13:16.919Z,54.80
2023-01-31T08:15:45.443Z,53.80
2023-01-31T08:18:15.014Z,53.10
2023-01-31T08:20:43.314Z,53.20
2023-01-31T08:23:11.703Z,52.80
2023-01-31T08:25:40.162Z,52.50
2023-01-31T08:28:08.660Z,51.70
2023-01-31T08:30:41.430Z,49.90
2023-01-31T08:33:10.979Z,48.50
2023-01-31T08:35:40.831Z,47.00
2023-01-31T08:38:16.406Z,46.10
2023-01-31T08:40:46.231Z,45.50
2023-01-31T08:43:15.394Z,45.40
2023-01-31T08:45:44.186Z,46.60
2023-01-31T08:48:12.699Z,47.80
2023-01-31T08:50:42.391Z,49.80
2023-01-31T08:53:10.926Z,50.20
2023-01-31T08:55:39.289Z,49.90
2023-01-31T08:58:07.786Z,49.20
2023-01-31T09:00:36.798Z,48.90
2023-01-31T09:03:05.276Z,48.70
2023-01-31T09:05:34.527Z,50.00
2023-01-31T09:08:04.322Z,52.10
2023-01-31T09:10:32.677Z,53.30
2023-01-31T09:13:01.642Z,54.20
2023-01-31T09:15:30.044Z,54.90
2023-01-31T09:17:58.359Z,54.40
2023-01-31T09:20:26.729Z,53.70
2023-01-31T09:22:55.100Z,52.20
2023-01-31T09:25:41.244Z,51.00
2023-01-31T09:28:12.518Z,49.00
2023-01-31T09:30:41.025Z,48.00
2023-01-31T09:33:09.437Z,46.60
2023-01-31T09:35:37.894Z,44.80
2023-01-31T09:38:06.353Z,43.30
2023-01-31T09:40:40.272Z,42.20
2023-01-31T09:43:12.545Z,40.90
2023-01-31T09:45:44.170Z,40.00
2023-01-31T09:48:19.924Z,39.60
2023-01-31T09:50:52.008Z,40.00
2023-01-31T09:53:22.927Z,40.40
2023-01-31T09:56:03.506Z,40.30
2023-01-31T09:58:39.629Z,40.30
2023-01-31T10:01:14.956Z,40.40
2023-01-31T10:04:02.569Z,40.00
2023-01-31T10:06:36.317Z,40.40
2023-01-31T10:09:11.763Z,40.20
2023-01-31T10:11:46.245Z,40.80
2023-01-31T10:14:27.954Z,41.00
2023-01-31T10:17:06.702Z,40.70
2023-01-31T10:19:45.705Z,39.70
2023-01-31T10:22:20.843Z,39.10
2023-01-31T10:24:55.433Z,38.00
2023-01-31T10:27:43.639Z,37.40
2023-01-31T10:30:19.381Z,36.30
2023-01-31T10:32:52.855Z,36.50
2023-01-31T10:35:25.997Z,37.40
2023-01-31T10:37:59.021Z,38.20
2023-01-31T10:40:33.892Z,39.10
2023-01-31T10:43:15.066Z,38.30
2023-01-31T10:45:43.524Z,38.00
2023-01-31T10:48:19.761Z,37.10
2023-01-31T10:51:01.207Z,36.40
2023-01-31T10:53:46.234Z,35.60
2023-01-31T10:56:22.262Z,36.40
2023-01-31T10:58:53.390Z,37.60
2023-01-31T11:01:21.851Z,37.60
2023-01-31T11:03:52.360Z,37.60
2023-01-31T11:06:21.630Z,37.40
2023-01-31T11:08:53.076Z,36.70
2023-01-31T11:11:23.055Z,36.60
2023-01-31T11:14:00.609Z,36.60
2023-01-31T11:16:32.795Z,36.60
2023-01-31T11:19:04.460Z,36.30
2023-01-31T11:21:35.270Z,36.50
2023-01-31T11:24:06.899Z,36.60
2023-01-31T11:26:38.006Z,36.60
2023-01-31T11:29:21.208Z,37.30
2023-01-31T11:31:49.822Z,38.60
2023-01-31T11:34:24.636Z,40.00
2023-01-31T11:36:53.956Z,41.30
2023-01-31T11:39:29.663Z,42.40
2023-01-31T11:41:58.732Z,42.80
2023-01-31T11:44:28.452Z,43.20
2023-01-31T11:46:59.992Z,42.30
2023-01-31T11:49:34.525Z,40.70
2023-01-31T11:52:12.371Z,40.10
2023-01-31T11:54:44.950Z,39.60
2023-01-31T11:57:18.202Z,39.70
2023-01-31T11:59:51.768Z,40.40
2023-01-31T12:02:29.032Z,40.80
2023-01-31T12:04:57.892Z,41.20
2023-01-31T12:07:33.384Z,41.70
2023-01-31T12:10:01.760Z,42.30
2023-01-31T12:12:32.248Z,43.90
2023-01-31T12:15:14.230Z,44.80
2023-01-31T12:17:45.842Z,44.60
2023-01-31T12:20:28.459Z,44.80
2023-01-31T12:23:08.474Z,45.40
2023-01-31T12:25:57.781Z,45.20
2023-01-31T12:28:38.633Z,44.40
2023-01-31T12:31:31.553Z,44.20
2023-01-31T12:34:23.464Z,43.40
2023-01-31T12:37:07.845Z,42.80
2023-01-31T12:39:53.798Z,41.90
2023-01-31T12:42:41.962Z,41.40
2023-01-31T12:45:36.347Z,41.00
2023-01-31T12:48:21.531Z,41.30
2023-01-31T12:50:54.570Z,41.60
2023-01-31T12:53:37.331Z,42.00
2023-01-31T12:56:39.482Z,43.00
2023-01-31T12:59:21.338Z,46.50
2023-01-31T13:01:56.279Z,47.30
2023-01-31T13:04:43.835Z,47.40
2023-01-31T13:07:16.855Z,47.50
2023-01-31T13:09:48.255Z,47.60
2023-01-31T13:12:20.570Z,47.20
2023-01-31T13:14:53.236Z,47.00
2023-01-31T13:17:27.439Z,46.90
2023-01-31T13:20:03.408Z,46.90
2023-01-31T13:22:37.070Z,46.80
2023-01-31T13:25:16.985Z,46.70
2023-01-31T13:27:50.412Z,47.00
2023-01-31T13:30:23.683Z,47.70
2023-01-31T13:32:56.064Z,48.00
2023-01-31T13:35:30.459Z,48.20
2023-01-31T13:38:04.187Z,48.40
2023-01-31T13:40:37.570Z,48.60
2023-01-31T13:43:14.135Z,49.30
2023-01-31T13:45:48.389Z,48.90
2023-01-31T13:48:24.861Z,49.00
2023-01-31T13:50:59.384Z,49.20
2023-01-31T13:53:32.718Z,49.50
2023-01-31T13:56:03.517Z,49.60
2023-01-31T13:58:35.528Z,49.90
2023-01-31T14:01:07.229Z,50.20
2023-01-31T14:04:25.599Z,50.60
2023-01-31T14:07:25.656Z,51.20
2023-01-31T14:10:29.921Z,51.90
2023-01-31T14:13:27.091Z,52.20
2023-01-31T14:15:57.299Z,52.60
2023-01-31T14:18:42.967Z,52.80
2023-01-31T14:21:52.086Z,53.00
2023-01-31T14:24:38.134Z,53.10
2023-01-31T14:27:17.275Z,53.20
2023-01-31T14:29:46.959Z,53.40
2023-01-31T14:32:16.822Z,53.50
2023-01-31T14:34:50.621Z,53.70
2023-01-31T14:37:28.504Z,53.90
2023-01-31T14:40:21.609Z,54.30
2023-01-31T14:43:13.640Z,54.40
2023-01-31T14:46:27.665Z,54.60
2023-01-31T14:49:26.917Z,54.90
2023-01-31T14:52:22.045Z,55.10
2023-01-31T14:55:03.755Z,55.40
2023-01-31T14:57:39.584Z,55.60
2023-01-31T15:00:19.871Z,55.80
2023-01-31T15:02:56.982Z,56.00
2023-01-31T15:05:41.426Z,56.10
2023-01-31T15:08:43.263Z,56.10
2023-01-31T15:11:42.838Z,56.20
2023-01-31T15:14:35.242Z,56.30
2023-01-31T15:17:20.165Z,56.40
2023-01-31T15:20:00.254Z,56.40
2023-01-31T15:22:28.816Z,56.50
2023-01-31T15:25:02.261Z,56.60
2023-01-31T15:27:33.673Z,56.60
2023-01-31T15:30:09.393Z,56.60
2023-01-31T15:32:41.353Z,56.80
2023-01-31T15:35:18.459Z,56.80
2023-01-31T15:37:48.944Z,56.80
2023-01-31T15:40:21.118Z,56.90
2023-01-31T15:42:49.564Z,56.80
2023-01-31T15:45:24.531Z,56.80
2023-01-31T15:48:03.643Z,56.80
2023-01-31T15:50:34.245Z,56.90
2023-01-31T15:53:06.991Z,56.80
2023-01-31T15:55:36.790Z,56.90
2023-01-31T15:58:07.163Z,56.80
2023-01-31T16:00:39.272Z,56.70
2023-01-31T16:03:09.331Z,56.70
2023-01-31T16:05:40.337Z,56.70
2023-01-31T16:08:21.345Z,56.70
2023-01-31T16:10:50.837Z,56.70
2023-01-31T16:13:20.058Z,56.60
2023-01-31T16:15:50.461Z,56.50
2023-01-31T16:18:19.823Z,56.50
2023-01-31T16:20:49.893Z,56.50
2023-01-31T16:23:28.273Z,56.50
2023-01-31T16:26:02.263Z,56.50
2023-01-31T16:28:37.132Z,56.40
2023-01-31T16:31:09.749Z,56.40
2023-01-31T16:33:39.292Z,56.40
2023-01-31T16:36:15.092Z,56.30
2023-01-31T16:38:57.634Z,56.30
2023-01-31T16:41:43.919Z,56.20
2023-01-31T16:44:16.748Z,56.10
2023-01-31T16:46:47.976Z,56.20
2023-01-31T16:49:22.558Z,56.00
2023-01-31T16:51:52.473Z,56.10
2023-01-31T16:54:24.170Z,56.10
2023-01-31T16:57:22.863Z,56.10
2023-01-31T16:59:52.404Z,56.20
2023-01-31T17:02:29.969Z,56.20
2023-01-31T17:05:00.186Z,56.30
2023-01-31T17:07:31.384Z,56.30
2023-01-31T17:10:02.103Z,56.40
2023-01-31T17:12:33.455Z,56.40
2023-01-31T17:15:04.043Z,56.40
2023-01-31T17:17:37.767Z,56.40
2023-01-31T17:20:06.784Z,56.40
2023-01-31T17:22:35.280Z,56.50
2023-01-31T17:25:03.643Z,56.50
2023-01-31T17:27:31.984Z,56.50
2023-01-31T17:30:00.455Z,56.60
2023-01-31T17:32:30.438Z,56.60
2023-01-31T17:35:01.267Z,56.60
2023-01-31T17:37:31.923Z,56.60
2023-01-31T17:40:01.794Z,56.60
2023-01-31T17:42:30.294Z,56.70
2023-01-31T17:44:58.836Z,56.70
2023-01-31T17:47:27.806Z,56.70
2023-01-31T17:49:57.519Z,56.60
2023-01-31T17:52:27.872Z,56.60
2023-01-31T17:54:56.279Z,56.50
2023-01-31T17:57:24.686Z,56.50
2023-01-31T17:59:53.417Z,56.50
2023-01-31T18:02:22.102Z,56.50
2023-01-31T18:04:50.500Z,56.50
2023-01-31T18:07:19.349Z,56.60
2023-01-31T18:09:49.057Z,56.60
2023-01-31T18:12:17.840Z,56.60
2023-01-31T18:14:46.306Z,56.70
2023-01-31T18:17:14.686Z,56.70
2023-01-31T18:19:43.055Z,56.90
2023-01-31T18:22:11.383Z,57.00
2023-01-31T18:24:40.792Z,57.00
2023-01-31T18:27:10.472Z,57.00
2023-01-31T18:29:39.024Z,57.10
2023-01-31T18:32:09.413Z,57.10
2023-01-31T18:34:38.736Z,57.20
2023-01-31T18:37:16.753Z,57.30
2023-01-31T18:39:45.115Z,57.30
2023-01-31T18:42:15.023Z,57.30
2023-01-31T18:44:44.337Z,57.40
2023-01-31T18:47:12.711Z,57.50
2023-01-31T18:49:41.352Z,57.50
2023-01-31T18:52:10.058Z,57.60
2023-01-31T18:54:38.539Z,57.70
2023-01-31T18:57:07.203Z,57.80
2023-01-31T18:59:36.929Z,57.80
2023-01-31T19:02:05.387Z,57.90
2023-01-31T19:04:33.832Z,58.00
2023-01-31T19:07:02.283Z,58.00
2023-01-31T19:09:30.698Z,58.10
2023-01-31T19:11:59.076Z,58.30
2023-01-31T19:14:27.452Z,58.40
2023-01-31T19:16:58.010Z,59.00
2023-01-31T19:19:26.787Z,58.50
2023-01-31T19:21:56.164Z,58.50
2023-01-31T19:24:24.604Z,58.60
2023-01-31T19:26:53.140Z,58.60
2023-01-31T19:29:21.565Z,58.70
2023-01-31T19:31:50.057Z,58.70
2023-01-31T19:34:19.862Z,58.90
2023-01-31T19:36:49.131Z,59.00
2023-01-31T19:39:17.631Z,59.10
2023-01-31T19:41:46.051Z,59.10
2023-01-31T19:44:14.410Z,59.20
2023-01-31T19:46:44.133Z,59.20
2023-01-31T19:49:12.841Z,59.30
2023-01-31T19:51:42.680Z,59.30
2023-01-31T19:54:15.164Z,59.40
2023-01-31T19:56:43.937Z,60.10
2023-01-31T19:59:12.743Z,59.60
2023-01-31T20:01:41.193Z,59.80
2023-01-31T20:04:09.571Z,59.90
2023-01-31T20:06:37.895Z,60.00
2023-01-31T20:09:08.265Z,60.30
2023-01-31T20:11:37.119Z,60.40
2023-01-31T20:14:06.537Z,60.60
2023-01-31T20:16:35.600Z,60.90
2023-01-31T20:19:06.657Z,61.10
2023-01-31T20:21:35.180Z,61.20
2023-01-31T20:24:03.628Z,61.40
2023-01-31T20:26:35.482Z,61.70
2023-01-31T20:29:03.910Z,61.80
2023-01-31T20:31:32.335Z,62.10
2023-01-31T20:34:00.721Z,62.50
2023-01-31T20:36:29.114Z,62.60
2023-01-31T20:38:57.464Z,62.60
2023-01-31T20:41:26.075Z,62.90
2023-01-31T20:43:55.945Z,63.80
2023-01-31T20:46:24.776Z,63.40
2023-01-31T20:48:53.275Z,63.60
2023-01-31T20:51:21.596Z,63.80
2023-01-31T20:53:49.925Z,64.00
2023-01-31T20:56:18.285Z,64.30
2023-01-31T20:58:46.778Z,64.80
2023-01-31T21:01:16.672Z,64.90
2023-01-31T21:03:45.123Z,65.20
2023-01-31T21:06:13.509Z,65.60
2023-01-31T21:08:41.995Z,65.80
2023-01-31T21:11:13.953Z,66.10
2023-01-31T21:13:44.034Z,66.40
2023-01-31T21:16:15.598Z,66.80
2023-01-31T21:18:45.564Z,67.30
2023-01-31T21:21:22.992Z,67.60
2023-01-31T21:23:52.653Z,68.00
2023-01-31T21:26:24.318Z,68.40
2023-01-31T21:28:54.317Z,68.80
2023-01-31T21:31:22.885Z,69.30
2023-01-31T21:33:53.534Z,69.70
2023-01-31T21:36:26.515Z,70.10
2023-01-31T21:38:55.168Z,70.50
2023-01-31T21:41:41.329Z,71.00
2023-01-31T21:44:09.868Z,71.30
2023-01-31T21:46:38.342Z,71.90
2023-01-31T21:49:08.563Z,72.10
2023-01-31T21:51:36.972Z,72.50
2023-01-31T21:54:05.568Z,72.90
2023-01-31T21:56:33.925Z,73.30
2023-01-31T21:59:02.364Z,73.70
2023-01-31T22:01:32.602Z,73.90
2023-01-31T22:04:01.404Z,74.20
2023-01-31T22:06:35.815Z,74.40
2023-01-31T22:09:05.001Z,74.60
2023-01-31T22:11:35.442Z,74.80
2023-01-31T22:14:05.221Z,74.90
2023-01-31T22:16:33.682Z,75.10
2023-01-31T22:19:02.502Z,75.20
2023-01-31T22:21:34.235Z,75.50
2023-01-31T22:24:04.635Z,75.60
2023-01-31T22:26:35.259Z,75.80
2023-01-31T22:29:05.553Z,76.10
2023-01-31T22:31:34.865Z,76.50
2023-01-31T22:34:05.495Z,76.60
2023-01-31T22:36:35.744Z,76.90
2023-01-31T22:39:04.245Z,76.90
2023-01-31T22:41:33.101Z,76.90
2023-01-31T22:44:01.496Z,76.90
2023-01-31T22:46:31.022Z,77.00
2023-01-31T22:48:59.542Z,77.00
2023-01-31T22:51:30.623Z,77.10
2023-01-31T22:54:00.373Z,77.10
2023-01-31T22:56:30.588Z,77.20
2023-01-31T22:59:00.200Z,77.30
2023-01-31T23:01:30.829Z,77.40
2023-01-31T23:04:01.115Z,77.40
2023-01-31T23:06:30.605Z,77.30
2023-01-31T23:09:00.329Z,77.50
2023-01-31T23:11:28.758Z,77.60
2023-01-31T23:13:58.362Z,77.80
2023-01-31T23:16:47.923Z,78.70
2023-01-31T23:19:17.418Z,78.10
2023-01-31T23:21:46.259Z,78.20
2023-01-31T23:24:16.308Z,78.20
2023-01-31T23:26:44.835Z,78.10
2023-01-31T23:29:13.354Z,78.00
2023-01-31T23:31:41.965Z,78.00
2023-01-31T23:34:10.438Z,78.20
2023-01-31T23:36:38.907Z,78.30
2023-01-31T23:39:07.615Z,78.60
2023-01-31T23:41:37.319Z,78.80
2023-01-31T23:44:05.865Z,79.00
2023-01-31T23:46:34.213Z,79.20
2023-01-31T23:49:02.671Z,79.30
2023-01-31T23:51:33.337Z,79.40
2023-01-31T23:54:01.675Z,79.50
2023-01-31T23:56:30.075Z,79.50
2023-01-31T23:58:59.757Z,79.60
